ADDS TAF Data INFO
IDs: Format: Raw Decoded Include METARs

Data at: 1608 UTC 19 Nov 2017

KTUS 191553Z 09007KT 10SM CLR 18/M05 A3010 RMK AO2 SLP167 T01781050

KTUS 191140Z 1912/2012 14008KT P6SM FEW250
  FM191500 12010G18KT P6SM SKC
  FM192200 04008KT P6SM SKC
  FM200700 14008KT P6SM SCT250